createdAt,value
2018-10-21T00:01:32.984Z,12.00
2018-10-21T00:04:08.139Z,11.90
2018-10-21T00:06:43.371Z,11.80
2018-10-21T00:09:23.425Z,11.80
2018-10-21T00:11:57.873Z,11.80
2018-10-21T00:14:34.710Z,11.80
2018-10-21T00:17:17.931Z,11.80
2018-10-21T00:19:52.267Z,11.70
2018-10-21T00:22:27.328Z,11.70
2018-10-21T00:25:01.841Z,11.60
2018-10-21T00:27:36.832Z,11.60
2018-10-21T00:30:11.318Z,11.60
2018-10-21T00:32:47.858Z,11.70
2018-10-21T00:35:23.070Z,11.60
2018-10-21T00:37:57.608Z,11.50
2018-10-21T00:40:31.871Z,11.40
2018-10-21T00:43:06.897Z,11.40
2018-10-21T00:45:41.268Z,11.40
2018-10-21T00:48:16.239Z,11.30
2018-10-21T00:50:51.208Z,11.30
2018-10-21T00:53:30.261Z,11.30
2018-10-21T00:56:05.004Z,11.20
2018-10-21T00:58:40.286Z,11.10
2018-10-21T01:01:14.581Z,11.10
2018-10-21T01:03:54.913Z,11.10
2018-10-21T01:06:30.218Z,11.10
2018-10-21T01:09:08.553Z,11.20
2018-10-21T01:11:43.449Z,11.20
2018-10-21T01:14:18.578Z,11.20
2018-10-21T01:16:53.360Z,11.10
2018-10-21T01:19:28.395Z,11.00
2018-10-21T01:22:03.435Z,11.00
2018-10-21T01:24:37.980Z,11.00
2018-10-21T01:27:12.609Z,11.00
2018-10-21T01:29:47.567Z,11.00
2018-10-21T01:32:22.088Z,11.10
2018-10-21T01:34:57.391Z,11.10
2018-10-21T01:37:31.640Z,11.10
2018-10-21T01:40:40.232Z,11.10
2018-10-21T01:43:15.757Z,11.20
2018-10-21T01:45:50.358Z,11.00
2018-10-21T01:48:26.494Z,11.10
2018-10-21T01:51:01.615Z,11.20
2018-10-21T01:53:37.035Z,11.10
2018-10-21T01:56:11.548Z,11.00
2018-10-21T01:58:46.604Z,11.00
2018-10-21T02:01:21.100Z,11.10
2018-10-21T02:03:55.970Z,11.20
2018-10-21T02:06:30.880Z,11.20
2018-10-21T02:09:06.813Z,11.20
2018-10-21T02:11:41.696Z,11.20
2018-10-21T02:14:16.165Z,11.30
2018-10-21T02:16:51.119Z,11.30
2018-10-21T02:19:30.067Z,11.30
2018-10-21T02:22:04.493Z,11.30
2018-10-21T02:24:39.037Z,11.40
2018-10-21T02:27:13.804Z,11.30
2018-10-21T02:29:48.164Z,11.30
2018-10-21T02:32:22.565Z,11.30
2018-10-21T02:34:57.454Z,11.40
2018-10-21T02:37:31.965Z,11.40
2018-10-21T02:40:13.432Z,11.40
2018-10-21T02:42:48.667Z,11.40
2018-10-21T02:45:23.175Z,11.40
2018-10-21T02:47:58.066Z,11.40
2018-10-21T02:50:33.460Z,11.50
2018-10-21T02:53:08.320Z,11.50
2018-10-21T02:55:44.047Z,11.50
2018-10-21T02:58:18.468Z,11.50
2018-10-21T03:00:53.677Z,11.60
2018-10-21T03:03:27.990Z,11.60
2018-10-21T03:06:07.864Z,11.60
2018-10-21T03:08:42.992Z,11.60
2018-10-21T03:11:17.432Z,11.60
2018-10-21T03:13:51.983Z,11.50
2018-10-21T03:16:26.947Z,11.60
2018-10-21T03:19:02.005Z,11.60
2018-10-21T03:21:36.860Z,11.60
2018-10-21T03:24:11.357Z,11.60
2018-10-21T03:26:46.299Z,11.60
2018-10-21T03:29:20.740Z,11.60
2018-10-21T03:31:55.380Z,11.70
2018-10-21T03:34:29.761Z,11.70
2018-10-21T03:37:04.597Z,11.60
2018-10-21T03:39:39.560Z,11.60
2018-10-21T03:42:14.508Z,11.50
2018-10-21T03:44:48.948Z,11.50
2018-10-21T03:47:23.347Z,11.60
2018-10-21T03:49:58.171Z,11.60
2018-10-21T03:52:33.322Z,11.70
2018-10-21T03:55:08.452Z,11.60
2018-10-21T03:57:43.315Z,11.60
2018-10-21T04:00:18.291Z,11.60
2018-10-21T04:02:53.088Z,11.60
2018-10-21T04:05:28.176Z,11.60
2018-10-21T04:08:03.632Z,11.60
2018-10-21T04:10:38.183Z,11.70
2018-10-21T04:13:13.404Z,11.70
2018-10-21T04:15:48.380Z,11.70
2018-10-21T04:18:23.296Z,11.70
2018-10-21T04:20:58.297Z,11.70
2018-10-21T04:23:32.815Z,11.70
2018-10-21T04:26:07.436Z,11.60
2018-10-21T04:28:41.948Z,11.60
2018-10-21T04:31:16.925Z,11.60
2018-10-21T04:33:51.462Z,11.60
2018-10-21T04:36:29.678Z,11.60
2018-10-21T04:39:42.573Z,11.50
2018-10-21T04:42:17.703Z,11.50
2018-10-21T04:44:52.135Z,11.30
2018-10-21T04:47:26.715Z,11.30
2018-10-21T04:50:01.996Z,11.30
2018-10-21T04:52:37.315Z,11.30
2018-10-21T04:55:20.655Z,11.30
2018-10-21T04:57:55.140Z,11.20
2018-10-21T05:00:29.935Z,11.20
2018-10-21T05:03:04.533Z,11.10
2018-10-21T05:05:38.947Z,11.10
2018-10-21T05:08:13.996Z,11.10
2018-10-21T05:10:49.093Z,11.10
2018-10-21T05:13:23.472Z,11.10
2018-10-21T05:15:59.049Z,11.00
2018-10-21T05:18:34.186Z,11.00
2018-10-21T05:21:08.832Z,11.00
2018-10-21T05:23:43.650Z,10.90
2018-10-21T05:26:18.198Z,10.80
2018-10-21T05:28:53.275Z,10.70
2018-10-21T05:31:27.779Z,10.70
2018-10-21T05:34:02.563Z,10.70
2018-10-21T05:36:37.579Z,10.70
2018-10-21T05:39:12.599Z,10.70
2018-10-21T05:41:47.407Z,10.70
2018-10-21T05:44:21.724Z,10.60
2018-10-21T05:46:56.149Z,10.60
2018-10-21T05:49:31.583Z,10.50
2018-10-21T05:52:06.229Z,10.50
2018-10-21T05:54:41.928Z,10.50
2018-10-21T05:57:17.419Z,10.50
2018-10-21T05:59:52.479Z,10.60
2018-10-21T06:02:27.699Z,10.60
2018-10-21T06:05:02.095Z,10.60
2018-10-21T06:07:37.243Z,10.60
2018-10-21T06:10:12.124Z,10.70
2018-10-21T06:12:46.543Z,10.80
2018-10-21T06:15:21.652Z,10.70
2018-10-21T06:17:56.673Z,10.80
2018-10-21T06:20:48.615Z,10.80
2018-10-21T06:23:23.002Z,10.80
2018-10-21T06:26:00.500Z,10.80
2018-10-21T06:28:34.879Z,10.80
2018-10-21T06:31:09.286Z,10.80
2018-10-21T06:33:44.259Z,10.80
2018-10-21T06:36:18.586Z,10.80
2018-10-21T06:38:53.566Z,10.90
2018-10-21T06:41:28.519Z,11.00
2018-10-21T06:44:03.072Z,10.90
2018-10-21T06:46:38.088Z,11.00
2018-10-21T06:49:12.909Z,10.90
2018-10-21T06:51:48.215Z,10.90
2018-10-21T06:54:23.551Z,11.00
2018-10-21T06:56:58.960Z,11.10
2018-10-21T06:59:33.859Z,11.10
2018-10-21T07:02:08.712Z,11.10
2018-10-21T07:04:43.155Z,11.10
2018-10-21T07:07:17.831Z,11.20
2018-10-21T07:09:52.251Z,11.20
2018-10-21T07:12:26.788Z,11.30
2018-10-21T07:15:02.052Z,11.30
2018-10-21T07:17:37.187Z,11.40
2018-10-21T07:20:12.284Z,11.60
2018-10-21T07:22:46.685Z,11.70
2018-10-21T07:25:21.042Z,11.80
2018-10-21T07:27:55.973Z,11.80
2018-10-21T07:30:36.449Z,11.90
2018-10-21T07:33:11.419Z,12.00
2018-10-21T07:35:45.644Z,12.20
2018-10-21T07:38:20.512Z,12.40
2018-10-21T07:40:55.828Z,12.60
2018-10-21T07:43:30.293Z,12.80
2018-10-21T07:46:05.674Z,13.00
2018-10-21T07:48:40.772Z,13.30
2018-10-21T07:51:15.074Z,13.60
2018-10-21T07:53:50.501Z,13.70
2018-10-21T07:56:25.909Z,13.90
2018-10-21T07:59:00.644Z,14.10
2018-10-21T08:01:35.576Z,14.40
2018-10-21T08:04:10.573Z,14.50
2018-10-21T08:08:58.943Z,14.60
2018-10-21T08:11:33.606Z,14.80
2018-10-21T08:14:09.170Z,14.90
2018-10-21T08:16:44.203Z,15.20
2018-10-21T08:19:19.520Z,15.40
2018-10-21T08:21:53.931Z,15.70
2018-10-21T08:24:28.514Z,15.90
2018-10-21T08:27:03.032Z,16.20
2018-10-21T08:29:38.115Z,16.50
2018-10-21T08:32:12.440Z,16.60
2018-10-21T08:34:47.326Z,16.80
2018-10-21T08:37:29.548Z,17.00
2018-10-21T08:40:04.706Z,17.00
2018-10-21T08:42:39.247Z,17.10
2018-10-21T08:45:29.588Z,17.30
2018-10-21T08:48:03.929Z,17.50
2018-10-21T08:50:38.260Z,17.60
2018-10-21T08:53:13.246Z,17.70
2018-10-21T08:55:48.486Z,17.80
2018-10-21T08:58:23.693Z,17.80
2018-10-21T09:00:58.786Z,17.90
2018-10-21T09:03:33.293Z,17.90
2018-10-21T09:06:16.684Z,18.00
2018-10-21T09:08:51.312Z,17.90
2018-10-21T09:11:26.267Z,17.70
2018-10-21T09:14:00.732Z,17.40
2018-10-21T09:16:36.351Z,17.30
2018-10-21T09:19:11.763Z,17.20
2018-10-21T09:21:46.134Z,17.10
2018-10-21T09:24:20.771Z,16.70
2018-10-21T09:27:00.790Z,16.70
2018-10-21T09:29:37.143Z,16.70
2018-10-21T09:32:16.165Z,16.80
2018-10-21T09:34:50.676Z,16.80
2018-10-21T09:37:25.733Z,16.50
2018-10-21T09:40:03.320Z,16.10
2018-10-21T09:42:46.658Z,16.40
2018-10-21T09:45:22.660Z,16.70
2018-10-21T09:47:58.219Z,17.00
2018-10-21T09:50:32.915Z,17.20
2018-10-21T09:53:07.255Z,17.40
2018-10-21T09:55:42.439Z,17.50
2018-10-21T09:58:19.527Z,17.70
2018-10-21T10:01:00.016Z,17.70
2018-10-21T10:03:34.656Z,17.80
2018-10-21T10:06:19.704Z,17.80
2018-10-21T10:08:54.157Z,17.90
2018-10-21T10:11:28.584Z,17.90
2018-10-21T10:14:03.556Z,17.90
2018-10-21T10:16:39.106Z,18.00
2018-10-21T10:19:14.275Z,18.10
2018-10-21T10:21:48.677Z,18.10
2018-10-21T10:24:23.512Z,18.20
2018-10-21T10:26:57.840Z,18.20
2018-10-21T10:29:32.388Z,18.10
2018-10-21T10:32:06.833Z,17.90
2018-10-21T10:34:41.119Z,17.80
2018-10-21T10:37:16.274Z,17.70
2018-10-21T10:39:50.512Z,17.70
2018-10-21T10:42:25.099Z,17.70
2018-10-21T10:45:00.244Z,17.70
2018-10-21T10:47:42.136Z,17.70
2018-10-21T10:50:17.426Z,17.70
2018-10-21T10:52:52.094Z,17.70
2018-10-21T10:55:34.527Z,17.70
2018-10-21T10:58:10.086Z,17.60
2018-10-21T11:00:46.983Z,17.60
2018-10-21T11:03:21.373Z,17.50
2018-10-21T11:05:56.532Z,17.60
2018-10-21T11:08:32.216Z,17.70
2018-10-21T11:11:07.424Z,17.70
2018-10-21T11:16:29.534Z,18.00
2018-10-21T11:19:05.332Z,19.10
2018-10-21T11:21:42.400Z,21.80
2018-10-21T11:24:17.711Z,25.10
2018-10-21T11:26:53.039Z,27.00
2018-10-21T11:29:28.759Z,27.50
2018-10-21T11:32:04.259Z,27.10
2018-10-21T11:34:39.494Z,26.60
2018-10-21T11:37:15.363Z,26.00
2018-10-21T11:39:51.055Z,25.40
2018-10-21T11:42:25.445Z,24.20
2018-10-21T11:45:00.436Z,23.30
2018-10-21T11:47:36.239Z,22.70
2018-10-21T11:50:12.012Z,22.30
2018-10-21T11:52:47.037Z,21.90
2018-10-21T11:55:25.521Z,21.60
2018-10-21T11:58:00.326Z,21.60
2018-10-21T12:00:35.184Z,21.70
2018-10-21T12:03:11.535Z,21.60
2018-10-21T12:05:47.116Z,21.30
2018-10-21T12:08:22.544Z,20.60
2018-10-21T12:14:25.867Z,20.30
2018-10-21T12:17:28.914Z,20.40
2018-10-21T12:20:04.252Z,20.20
2018-10-21T12:22:38.800Z,20.10
2018-10-21T12:25:13.407Z,20.50
2018-10-21T12:27:47.765Z,20.70
2018-10-21T12:30:22.964Z,21.10
2018-10-21T12:32:58.036Z,21.50
2018-10-21T12:35:33.008Z,21.70
2018-10-21T12:38:07.972Z,22.10
2018-10-21T12:50:10.909Z,22.60
2018-10-21T12:52:46.163Z,22.20
2018-10-21T12:55:21.231Z,22.10
2018-10-21T12:57:55.565Z,21.90
2018-10-21T13:00:30.447Z,21.90
2018-10-21T13:03:04.912Z,21.80
2018-10-21T13:05:39.901Z,21.60
2018-10-21T13:08:19.698Z,21.20
2018-10-21T13:10:54.099Z,21.20
2018-10-21T13:13:29.170Z,21.30
2018-10-21T13:16:04.157Z,21.50
2018-10-21T13:18:40.117Z,21.30
2018-10-21T13:21:15.446Z,21.70
2018-10-21T13:23:50.917Z,21.80
2018-10-21T13:26:25.591Z,22.00
2018-10-21T13:29:00.247Z,22.30
2018-10-21T13:31:35.456Z,22.70
2018-10-21T13:34:10.621Z,22.60
2018-10-21T13:36:45.563Z,22.70
2018-10-21T13:39:20.840Z,22.70
2018-10-21T13:41:55.345Z,22.60
2018-10-21T13:44:30.357Z,22.50
2018-10-21T13:47:05.477Z,22.20
2018-10-21T13:49:43.992Z,21.90
2018-10-21T13:52:19.083Z,21.80
2018-10-21T13:54:54.789Z,22.00
2018-10-21T13:57:31.511Z,22.30
2018-10-21T14:00:07.035Z,22.30
2018-10-21T14:02:41.657Z,22.20
2018-10-21T14:05:17.179Z,22.20
2018-10-21T14:07:52.359Z,21.60
2018-10-21T14:10:27.196Z,21.50
2018-10-21T14:13:03.318Z,21.70
2018-10-21T14:15:39.550Z,21.50
2018-10-21T14:18:14.889Z,21.40
2018-10-21T14:20:49.795Z,21.40
2018-10-21T14:23:25.586Z,21.50
2018-10-21T14:26:00.611Z,21.70
2018-10-21T14:28:36.142Z,21.70
2018-10-21T14:31:11.632Z,21.80
2018-10-21T14:33:46.560Z,21.80
2018-10-21T14:36:23.142Z,21.80
2018-10-21T14:38:58.104Z,21.90
2018-10-21T14:41:32.918Z,22.10
2018-10-21T14:44:07.812Z,22.10
2018-10-21T14:46:43.875Z,22.10
2018-10-21T14:49:19.207Z,21.90
2018-10-21T14:51:54.367Z,22.10
2018-10-21T14:54:29.591Z,22.30
2018-10-21T14:57:04.791Z,22.40
2018-10-21T14:59:39.073Z,22.40
2018-10-21T15:02:13.767Z,22.40
2018-10-21T15:04:48.381Z,22.00
2018-10-21T15:07:23.460Z,21.70
2018-10-21T15:09:57.862Z,21.40
2018-10-21T15:12:33.156Z,21.30
2018-10-21T15:15:09.568Z,21.30
2018-10-21T15:17:45.931Z,21.30
2018-10-21T15:20:21.319Z,21.30
2018-10-21T15:23:04.470Z,21.30
2018-10-21T15:25:38.856Z,21.20
2018-10-21T15:28:14.050Z,21.10
2018-10-21T15:30:48.845Z,21.10
2018-10-21T15:33:23.248Z,21.00
2018-10-21T15:35:58.165Z,21.00
2018-10-21T15:38:33.112Z,20.80
2018-10-21T15:41:08.593Z,20.70
2018-10-21T15:43:42.972Z,20.40
2018-10-21T15:46:18.213Z,20.20
2018-10-21T15:48:53.206Z,20.10
2018-10-21T15:51:28.216Z,19.90
2018-10-21T15:54:03.534Z,19.80
2018-10-21T15:56:37.983Z,19.60
2018-10-21T15:59:12.804Z,19.50
2018-10-21T16:01:47.149Z,19.10
2018-10-21T16:04:21.808Z,18.90
2018-10-21T16:06:57.575Z,19.00
2018-10-21T16:09:32.492Z,18.90
2018-10-21T16:12:07.035Z,18.90
2018-10-21T16:14:42.364Z,18.80
2018-10-21T16:17:19.324Z,18.80
2018-10-21T16:19:54.424Z,18.60
2018-10-21T16:22:29.500Z,18.40
2018-10-21T16:25:04.932Z,18.40
2018-10-21T16:27:39.299Z,18.30
2018-10-21T16:30:15.942Z,18.20
2018-10-21T16:32:50.523Z,18.10
2018-10-21T16:35:24.864Z,18.00
2018-10-21T16:38:00.042Z,17.90
2018-10-21T16:40:34.573Z,17.80
2018-10-21T16:43:08.876Z,17.70
2018-10-21T16:45:44.096Z,17.60
2018-10-21T16:48:20.068Z,17.40
2018-10-21T16:50:55.346Z,17.30
2018-10-21T16:53:29.773Z,17.20
2018-10-21T16:56:04.737Z,17.20
2018-10-21T16:58:42.624Z,17.10
2018-10-21T17:01:18.185Z,17.00
2018-10-21T17:03:52.733Z,16.90
2018-10-21T17:09:23.800Z,16.80
2018-10-21T17:11:58.128Z,16.60
2018-10-21T17:14:38.740Z,16.60
2018-10-21T17:17:18.920Z,16.50
2018-10-21T17:19:54.178Z,16.40
2018-10-21T17:22:28.635Z,16.30
2018-10-21T17:25:05.144Z,16.20
2018-10-21T17:27:39.504Z,16.20
2018-10-21T17:30:17.250Z,16.10
2018-10-21T17:32:53.638Z,16.10
2018-10-21T17:35:28.239Z,16.00
2018-10-21T17:38:04.459Z,15.90
2018-10-21T17:40:39.339Z,15.90
2018-10-21T17:43:13.740Z,15.80
2018-10-21T17:45:58.618Z,15.70
2018-10-21T17:48:35.256Z,15.60
2018-10-21T17:51:12.100Z,15.50
2018-10-21T17:53:54.990Z,15.40
2018-10-21T17:56:29.587Z,15.40
2018-10-21T17:59:04.261Z,15.30
2018-10-21T18:01:40.582Z,15.20
2018-10-21T18:04:15.213Z,15.20
2018-10-21T18:06:52.803Z,15.10
2018-10-21T18:09:30.033Z,15.10
2018-10-21T18:12:04.572Z,15.00
2018-10-21T18:14:41.435Z,14.90
2018-10-21T18:17:21.028Z,14.80
2018-10-21T18:19:56.500Z,14.80
2018-10-21T18:22:30.824Z,14.70
2018-10-21T18:25:08.000Z,14.70
2018-10-21T18:27:44.287Z,14.60
2018-10-21T18:33:01.927Z,14.50
2018-10-21T18:35:36.367Z,14.40
2018-10-21T18:38:12.712Z,14.40
2018-10-21T18:40:47.713Z,14.30
2018-10-21T18:43:22.255Z,14.20
2018-10-21T18:45:59.843Z,14.10
2018-10-21T18:48:36.784Z,14.00
2018-10-21T18:51:11.498Z,14.10
2018-10-21T18:53:56.527Z,14.10
2018-10-21T18:56:31.605Z,14.00
2018-10-21T19:04:35.891Z,13.80
2018-10-21T19:07:12.529Z,13.70
2018-10-21T19:09:49.140Z,13.70
2018-10-21T19:12:23.679Z,13.80
2018-10-21T19:15:01.138Z,13.70
2018-10-21T19:17:38.363Z,13.70
2018-10-21T19:20:16.880Z,13.70
2018-10-21T19:22:51.490Z,13.70
2018-10-21T19:25:28.143Z,13.70
2018-10-21T19:28:02.995Z,13.60
2018-10-21T19:30:38.804Z,13.60
2018-10-21T19:33:14.017Z,13.60
2018-10-21T19:35:48.924Z,13.50
2018-10-21T19:38:24.876Z,13.50
2018-10-21T19:41:00.538Z,13.40
2018-10-21T19:43:35.015Z,13.40
2018-10-21T19:46:11.456Z,13.40
2018-10-21T19:48:46.995Z,13.30
2018-10-21T19:51:21.488Z,13.20
2018-10-21T19:53:57.874Z,13.10
2018-10-21T19:56:33.279Z,13.00
2018-10-21T19:59:07.679Z,13.00
2018-10-21T20:01:42.885Z,12.90
2018-10-21T20:04:17.378Z,12.90
2018-10-21T20:06:52.348Z,12.90
2018-10-21T20:09:27.660Z,12.90
2018-10-21T20:12:02.189Z,12.90
2018-10-21T20:14:40.228Z,12.80
2018-10-21T20:17:14.748Z,12.80
2018-10-21T20:19:49.744Z,12.80
2018-10-21T20:22:24.255Z,12.70
2018-10-21T20:24:59.229Z,12.70
2018-10-21T20:27:34.429Z,12.70
2018-10-21T20:30:10.449Z,12.60
2018-10-21T20:32:44.834Z,12.60
2018-10-21T20:35:20.219Z,12.50
2018-10-21T20:37:55.575Z,12.50
2018-10-21T20:40:30.130Z,12.40
2018-10-21T20:43:04.978Z,12.30
2018-10-21T20:45:40.215Z,12.30
2018-10-21T20:48:20.898Z,12.30
2018-10-21T20:50:55.248Z,12.30
2018-10-21T20:53:30.341Z,12.20
2018-10-21T20:56:05.447Z,12.20
2018-10-21T20:58:40.483Z,12.20
2018-10-21T21:01:14.824Z,12.20
2018-10-21T21:03:50.284Z,12.10
2018-10-21T21:06:24.740Z,12.10
2018-10-21T21:09:00.497Z,12.00
2018-10-21T21:11:36.048Z,12.00
2018-10-21T21:14:10.636Z,12.00
2018-10-21T21:16:45.603Z,11.90
2018-10-21T21:19:20.560Z,11.90
2018-10-21T21:21:55.119Z,11.80
2018-10-21T21:24:30.324Z,11.80
2018-10-21T21:27:04.957Z,11.70
2018-10-21T21:29:45.983Z,11.70
2018-10-21T21:32:20.448Z,11.60
2018-10-21T21:34:54.960Z,11.50
2018-10-21T21:37:30.152Z,11.50
2018-10-21T21:40:06.171Z,11.50
2018-10-21T21:42:40.640Z,11.40
2018-10-21T21:45:15.520Z,11.40
2018-10-21T21:47:49.972Z,11.40
2018-10-21T21:50:25.022Z,11.30
2018-10-21T21:52:59.448Z,11.20
2018-10-21T21:55:34.547Z,11.20
2018-10-21T21:58:09.659Z,11.20
2018-10-21T22:00:44.165Z,11.10
2018-10-21T22:03:19.270Z,11.10
2018-10-21T22:05:53.692Z,11.10
2018-10-21T22:08:29.380Z,11.00
2018-10-21T22:11:04.445Z,11.00
2018-10-21T22:13:38.876Z,11.00
2018-10-21T22:16:14.110Z,10.90
2018-10-21T22:18:49.204Z,10.90
2018-10-21T22:21:23.769Z,10.90
2018-10-21T22:23:58.725Z,10.90
2018-10-21T22:26:33.719Z,10.80
2018-10-21T22:29:08.283Z,10.80
2018-10-21T22:31:43.209Z,10.80
2018-10-21T22:34:17.827Z,10.80
2018-10-21T22:36:52.720Z,10.70
2018-10-21T22:39:27.895Z,10.70
2018-10-21T22:42:02.426Z,10.70
2018-10-21T22:44:37.606Z,10.60
2018-10-21T22:47:12.116Z,10.50
2018-10-21T22:49:47.079Z,10.50
2018-10-21T22:52:21.583Z,10.50
2018-10-21T22:54:56.436Z,10.50
2018-10-21T22:57:31.600Z,10.40
2018-10-21T23:00:07.732Z,10.40
2018-10-21T23:02:42.764Z,10.40
2018-10-21T23:05:17.792Z,10.30
2018-10-21T23:07:52.635Z,10.30
2018-10-21T23:10:27.655Z,10.30
2018-10-21T23:13:01.942Z,10.30
2018-10-21T23:15:36.932Z,10.20
2018-10-21T23:18:12.439Z,10.20
2018-10-21T23:20:46.736Z,10.20
2018-10-21T23:23:21.279Z,10.20
2018-10-21T23:25:56.137Z,10.20
2018-10-21T23:28:30.680Z,10.20
2018-10-21T23:31:06.044Z,10.20
2018-10-21T23:33:40.500Z,10.10
2018-10-21T23:36:15.014Z,10.10
2018-10-21T23:38:50.175Z,10.00
2018-10-21T23:41:25.164Z,10.10
2018-10-21T23:43:59.836Z,10.00
2018-10-21T23:46:34.875Z,10.00
2018-10-21T23:49:10.050Z,10.00
2018-10-21T23:51:44.504Z,10.00
2018-10-21T23:54:19.775Z,9.90
2018-10-21T23:56:55.660Z,9.90
2018-10-21T23:59:30.664Z,9.80
